sensor_id;sensor_type;location;lat;lon;timestamp;pressure;altitude;pressure_sealevel;temperature;humidity
30584;BME280;17357;59.404;18.414;2022-07-29T00:00:56;102274.72;;;22.63;59.86
30584;BME280;17357;59.404;18.414;2022-07-29T00:03:21;102271.31;;;22.57;59.88
30584;BME280;17357;59.404;18.414;2022-07-29T00:05:46;102268.81;;;22.56;59.93
30584;BME280;17357;59.404;18.414;2022-07-29T00:08:12;102265.66;;;22.57;59.88
30584;BME280;17357;59.404;18.414;2022-07-29T00:10:37;102266.34;;;22.54;59.90
30584;BME280;17357;59.404;18.414;2022-07-29T00:13:03;102266.47;;;22.58;59.80
30584;BME280;17357;59.404;18.414;2022-07-29T00:15:28;102274.47;;;22.56;59.83
30584;BME280;17357;59.404;18.414;2022-07-29T00:17:53;102266.22;;;22.50;59.85
30584;BME280;17357;59.404;18.414;2022-07-29T00:20:19;102269.66;;;22.56;60.04
30584;BME280;17357;59.404;18.414;2022-07-29T00:22:44;102268.81;;;22.56;59.93
30584;BME280;17357;59.404;18.414;2022-07-29T00:25:09;102276.13;;;22.57;59.83
30584;BME280;17357;59.404;18.414;2022-07-29T00:27:35;102268.22;;;22.50;59.83
30584;BME280;17357;59.404;18.414;2022-07-29T00:30:00;102272.38;;;22.52;59.74
30584;BME280;17357;59.404;18.414;2022-07-29T00:32:26;102261.75;;;22.49;59.67
30584;BME280;17357;59.404;18.414;2022-07-29T00:34:51;102265.75;;;22.48;59.57
30584;BME280;17357;59.404;18.414;2022-07-29T00:37:35;102269.78;;;22.47;59.36
30584;BME280;17357;59.404;18.414;2022-07-29T00:40:00;102261.63;;;22.46;59.44
30584;BME280;17357;59.404;18.414;2022-07-29T00:42:25;102265.63;;;22.45;59.15
30584;BME280;17357;59.404;18.414;2022-07-29T00:44:51;102258.31;;;22.44;59.41
30584;BME280;17357;59.404;18.414;2022-07-29T00:47:16;102257.16;;;22.45;59.41
30584;BME280;17357;59.404;18.414;2022-07-29T00:49:42;102264.31;;;22.42;59.67
30584;BME280;17357;59.404;18.414;2022-07-29T00:52:09;102249.00;;;22.43;59.44
30584;BME280;17357;59.404;18.414;2022-07-29T00:54:35;102240.75;;;22.38;59.52
30584;BME280;17357;59.404;18.414;2022-07-29T00:57:01;102249.97;;;22.47;61.45
30584;BME280;17357;59.404;18.414;2022-07-29T00:59:27;102238.88;;;22.54;63.95
30584;BME280;17357;59.404;18.414;2022-07-29T01:01:53;102257.03;;;22.66;66.16
30584;BME280;17357;59.404;18.414;2022-07-29T01:04:19;102255.69;;;22.72;67.91
30584;BME280;17357;59.404;18.414;2022-07-29T01:06:45;102249.00;;;22.76;69.00
30584;BME280;17357;59.404;18.414;2022-07-29T01:09:10;102251.91;;;22.80;70.46
30584;BME280;17357;59.404;18.414;2022-07-29T01:11:36;102258.41;;;22.80;68.96
30584;BME280;17357;59.404;18.414;2022-07-29T01:14:03;102258.31;;;22.77;67.17
30584;BME280;17357;59.404;18.414;2022-07-29T01:16:32;102253.19;;;22.70;65.46
30584;BME280;17357;59.404;18.414;2022-07-29T01:19:23;102247.84;;;22.57;64.74
30584;BME280;17357;59.404;18.414;2022-07-29T01:21:55;102254.13;;;22.62;63.95
30584;BME280;17357;59.404;18.414;2022-07-29T01:29:44;102256.69;;;22.55;63.33
30584;BME280;17357;59.404;18.414;2022-07-29T01:32:12;102232.41;;;22.54;63.57
30584;BME280;17357;59.404;18.414;2022-07-29T01:37:24;102252.44;;;22.49;63.26
30584;BME280;17357;59.404;18.414;2022-07-29T01:39:52;102236.66;;;22.48;63.32
30584;BME280;17357;59.404;18.414;2022-07-29T01:42:37;102242.19;;;22.44;62.88
30584;BME280;17357;59.404;18.414;2022-07-29T01:47:57;102238.28;;;22.37;62.39
30584;BME280;17357;59.404;18.414;2022-07-29T01:50:30;102242.16;;;22.32;61.80
30584;BME280;17357;59.404;18.414;2022-07-29T01:53:05;102246.97;;;22.32;61.36
30584;BME280;17357;59.404;18.414;2022-07-29T01:55:35;102246.16;;;22.31;60.99
30584;BME280;17357;59.404;18.414;2022-07-29T01:58:03;102249.69;;;22.28;60.90
30584;BME280;17357;59.404;18.414;2022-07-29T02:00:30;102249.34;;;22.30;60.79
30584;BME280;17357;59.404;18.414;2022-07-29T02:02:59;102244.38;;;22.27;60.49
30584;BME280;17357;59.404;18.414;2022-07-29T02:05:26;102253.19;;;22.25;60.42
30584;BME280;17357;59.404;18.414;2022-07-29T02:07:55;102240.25;;;22.24;60.58
30584;BME280;17357;59.404;18.414;2022-07-29T02:10:23;102237.63;;;22.19;60.51
30584;BME280;17357;59.404;18.414;2022-07-29T02:12:50;102243.09;;;22.24;60.58
30584;BME280;17357;59.404;18.414;2022-07-29T02:15:16;102242.59;;;22.22;60.48
30584;BME280;17357;59.404;18.414;2022-07-29T02:17:47;102239.44;;;22.24;60.35
30584;BME280;17357;59.404;18.414;2022-07-29T02:20:14;102247.91;;;22.24;60.31
30584;BME280;17357;59.404;18.414;2022-07-29T02:22:41;102249.91;;;22.23;60.32
30584;BME280;17357;59.404;18.414;2022-07-29T02:25:10;102252.25;;;22.21;60.58
30584;BME280;17357;59.404;18.414;2022-07-29T02:27:37;102248.25;;;22.22;60.37
30584;BME280;17357;59.404;18.414;2022-07-29T02:30:05;102248.25;;;22.22;60.43
30584;BME280;17357;59.404;18.414;2022-07-29T02:32:31;102245.44;;;22.22;60.27
30584;BME280;17357;59.404;18.414;2022-07-29T02:34:59;102247.44;;;22.22;60.09
30584;BME280;17357;59.404;18.414;2022-07-29T02:37:26;102244.94;;;22.20;60.01
30584;BME280;17357;59.404;18.414;2022-07-29T02:39:54;102252.03;;;22.26;61.63
30584;BME280;17357;59.404;18.414;2022-07-29T02:42:21;102242.97;;;22.33;64.41
30584;BME280;17357;59.404;18.414;2022-07-29T02:44:48;102251.38;;;22.41;66.25
30584;BME280;17357;59.404;18.414;2022-07-29T02:47:21;102254.31;;;22.45;67.76
30584;BME280;17357;59.404;18.414;2022-07-29T02:49:55;102260.56;;;22.50;69.37
30584;BME280;17357;59.404;18.414;2022-07-29T02:52:26;102258.50;;;22.60;70.25
30584;BME280;17357;59.404;18.414;2022-07-29T02:57:46;102256.81;;;22.59;72.09
30584;BME280;17357;59.404;18.414;2022-07-29T03:00:13;102198.63;;;22.70;72.64
30584;BME280;17357;59.404;18.414;2022-07-29T03:02:42;102204.91;;;22.75;73.62
30584;BME280;17357;59.404;18.414;2022-07-29T03:05:11;102190.63;;;22.72;74.75
30584;BME280;17357;59.404;18.414;2022-07-29T03:07:38;102297.41;;;22.75;75.52
30584;BME280;17357;59.404;18.414;2022-07-29T03:10:06;102262.56;;;22.83;75.49
30584;BME280;17357;59.404;18.414;2022-07-29T03:12:33;102235.06;;;22.83;76.10
30584;BME280;17357;59.404;18.414;2022-07-29T03:14:59;102234.59;;;22.81;76.92
30584;BME280;17357;59.404;18.414;2022-07-29T03:17:25;102244.03;;;22.85;77.06
30584;BME280;17357;59.404;18.414;2022-07-29T03:19:51;102242.50;;;22.88;77.53
30584;BME280;17357;59.404;18.414;2022-07-29T03:22:16;102233.53;;;22.86;77.86
30584;BME280;17357;59.404;18.414;2022-07-29T03:24:42;102245.09;;;22.93;78.42
30584;BME280;17357;59.404;18.414;2022-07-29T03:27:07;102248.63;;;22.90;78.78
30584;BME280;17357;59.404;18.414;2022-07-29T03:29:32;102251.69;;;22.97;79.40
30584;BME280;17357;59.404;18.414;2022-07-29T03:31:58;102248.63;;;23.02;80.20
30584;BME280;17357;59.404;18.414;2022-07-29T03:34:23;102242.63;;;23.04;80.87
30584;BME280;17357;59.404;18.414;2022-07-29T03:36:49;102240.13;;;23.02;81.50
30584;BME280;17357;59.404;18.414;2022-07-29T03:39:20;102250.63;;;23.02;81.72
30584;BME280;17357;59.404;18.414;2022-07-29T03:41:47;102243.78;;;23.03;81.96
30584;BME280;17357;59.404;18.414;2022-07-29T03:44:15;102244.38;;;23.08;82.04
30584;BME280;17357;59.404;18.414;2022-07-29T03:46:41;102244.38;;;23.08;81.66
30584;BME280;17357;59.404;18.414;2022-07-29T03:49:08;102241.53;;;23.08;81.42
30584;BME280;17357;59.404;18.414;2022-07-29T03:51:35;102242.28;;;23.05;81.39
30584;BME280;17357;59.404;18.414;2022-07-29T03:54:02;102240.63;;;23.04;80.90
30584;BME280;17357;59.404;18.414;2022-07-29T03:56:28;102238.13;;;23.03;80.33
30584;BME280;17357;59.404;18.414;2022-07-29T03:58:54;102243.94;;;23.06;80.03
30584;BME280;17357;59.404;18.414;2022-07-29T04:01:20;102250.38;;;23.07;79.68
30584;BME280;17357;59.404;18.414;2022-07-29T04:03:47;102248.63;;;23.14;79.17
30584;BME280;17357;59.404;18.414;2022-07-29T04:06:13;102245.66;;;23.35;78.04
30584;BME280;17357;59.404;18.414;2022-07-29T04:08:38;102253.06;;;23.64;77.25
30584;BME280;17357;59.404;18.414;2022-07-29T04:11:04;102248.50;;;23.87;76.37
30584;BME280;17357;59.404;18.414;2022-07-29T04:13:31;102254.41;;;24.10;75.69
30584;BME280;17357;59.404;18.414;2022-07-29T04:15:57;102241.47;;;24.25;75.49
30584;BME280;17357;59.404;18.414;2022-07-29T04:18:22;102245.34;;;24.32;75.46
30584;BME280;17357;59.404;18.414;2022-07-29T04:20:48;102252.41;;;24.54;75.27
30584;BME280;17357;59.404;18.414;2022-07-29T04:23:13;102241.72;;;24.63;75.44
30584;BME280;17357;59.404;18.414;2022-07-29T04:25:40;102247.28;;;24.75;75.12
30584;BME280;17357;59.404;18.414;2022-07-29T04:28:06;102246.28;;;24.83;75.09
30584;BME280;17357;59.404;18.414;2022-07-29T04:30:32;102251.88;;;24.80;73.32
30584;BME280;17357;59.404;18.414;2022-07-29T04:32:59;102246.28;;;24.68;70.10
30584;BME280;17357;59.404;18.414;2022-07-29T04:35:25;102247.75;;;24.46;67.13
30584;BME280;17357;59.404;18.414;2022-07-29T04:37:51;102251.91;;;24.36;65.04
30584;BME280;17357;59.404;18.414;2022-07-29T04:40:16;102243.53;;;24.40;63.71
30584;BME280;17357;59.404;18.414;2022-07-29T04:42:42;102248.72;;;24.38;62.76
30584;BME280;17357;59.404;18.414;2022-07-29T04:45:07;102251.09;;;24.36;61.74
30584;BME280;17357;59.404;18.414;2022-07-29T04:47:32;102253.50;;;24.34;61.34
30584;BME280;17357;59.404;18.414;2022-07-29T04:49:58;102252.28;;;24.35;61.21
30584;BME280;17357;59.404;18.414;2022-07-29T04:52:23;102255.59;;;24.37;61.44
30584;BME280;17357;59.404;18.414;2022-07-29T04:54:49;102256.50;;;24.41;61.26
30584;BME280;17357;59.404;18.414;2022-07-29T04:57:14;102236.66;;;24.41;61.15
30584;BME280;17357;59.404;18.414;2022-07-29T04:59:39;102244.44;;;24.44;60.68
30584;BME280;17357;59.404;18.414;2022-07-29T05:02:05;102239.94;;;24.43;61.02
30584;BME280;17357;59.404;18.414;2022-07-29T05:04:30;102250.59;;;24.46;60.74
30584;BME280;17357;59.404;18.414;2022-07-29T05:06:55;102243.69;;;24.47;60.85
30584;BME280;17357;59.404;18.414;2022-07-29T05:09:20;102248.19;;;24.48;60.74
30584;BME280;17357;59.404;18.414;2022-07-29T05:11:46;102243.69;;;24.47;60.67
30584;BME280;17357;59.404;18.414;2022-07-29T05:14:11;102240.16;;;24.50;60.68
30584;BME280;17357;59.404;18.414;2022-07-29T05:16:36;102243.34;;;24.48;60.59
30584;BME280;17357;59.404;18.414;2022-07-29T05:19:02;102245.81;;;24.50;60.46
30584;BME280;17357;59.404;18.414;2022-07-29T05:21:27;102248.66;;;24.50;60.77
30584;BME280;17357;59.404;18.414;2022-07-29T05:23:53;102251.56;;;24.53;60.94
30584;BME280;17357;59.404;18.414;2022-07-29T05:26:18;102240.22;;;24.53;60.61
30584;BME280;17357;59.404;18.414;2022-07-29T05:28:43;102245.06;;;24.53;60.72
30584;BME280;17357;59.404;18.414;2022-07-29T05:31:08;102241.88;;;24.54;61.09
30584;BME280;17357;59.404;18.414;2022-07-29T05:33:34;102237.03;;;24.55;61.30
30584;BME280;17357;59.404;18.414;2022-07-29T05:35:59;102254.97;;;24.59;61.64
30584;BME280;17357;59.404;18.414;2022-07-29T05:38:25;102246.00;;;24.57;62.28
30584;BME280;17357;59.404;18.414;2022-07-29T05:40:50;102257.44;;;24.61;62.25
30584;BME280;17357;59.404;18.414;2022-07-29T05:43:15;102258.28;;;24.61;62.26
30584;BME280;17357;59.404;18.414;2022-07-29T05:45:40;102250.94;;;24.60;61.92
30584;BME280;17357;59.404;18.414;2022-07-29T05:48:06;102253.06;;;24.63;61.97
30584;BME280;17357;59.404;18.414;2022-07-29T05:50:31;102256.69;;;24.64;61.39
30584;BME280;17357;59.404;18.414;2022-07-29T05:52:56;102250.94;;;24.60;61.12
30584;BME280;17357;59.404;18.414;2022-07-29T05:55:21;102250.94;;;24.60;60.85
30584;BME280;17357;59.404;18.414;2022-07-29T05:57:47;102261.94;;;24.62;60.60
30584;BME280;17357;59.404;18.414;2022-07-29T06:00:12;102256.63;;;24.60;59.92
30584;BME280;17357;59.404;18.414;2022-07-29T06:02:37;102263.13;;;24.61;59.67
30584;BME280;17357;59.404;18.414;2022-07-29T06:05:03;102262.38;;;24.64;59.58
30584;BME280;17357;59.404;18.414;2022-07-29T06:07:28;102270.81;;;24.60;59.01
30584;BME280;17357;59.404;18.414;2022-07-29T06:09:53;102265.22;;;24.64;59.37
30584;BME280;17357;59.404;18.414;2022-07-29T06:12:19;102262.00;;;24.65;59.32
30584;BME280;17357;59.404;18.414;2022-07-29T06:14:44;102256.69;;;24.64;59.09
30584;BME280;17357;59.404;18.414;2022-07-29T06:17:10;102261.56;;;24.63;59.17
30584;BME280;17357;59.404;18.414;2022-07-29T06:19:37;102267.25;;;24.63;59.37
30584;BME280;17357;59.404;18.414;2022-07-29T06:22:02;102267.34;;;24.67;59.36
30584;BME280;17357;59.404;18.414;2022-07-29T06:24:28;102265.69;;;24.66;59.37
30584;BME280;17357;59.404;18.414;2022-07-29T06:26:53;102272.66;;;24.68;59.46
30584;BME280;17357;59.404;18.414;2022-07-29T06:29:18;102276.19;;;24.65;59.67
30584;BME280;17357;59.404;18.414;2022-07-29T06:31:43;102279.97;;;24.69;59.61
30584;BME280;17357;59.404;18.414;2022-07-29T06:34:09;102284.44;;;24.70;59.70
30584;BME280;17357;59.404;18.414;2022-07-29T06:36:35;102283.25;;;24.71;59.41
30584;BME280;17357;59.404;18.414;2022-07-29T06:39:06;102278.75;;;24.70;59.28
30584;BME280;17357;59.404;18.414;2022-07-29T06:41:32;102279.16;;;24.69;59.13
30584;BME280;17357;59.404;18.414;2022-07-29T06:43:57;102279.59;;;24.71;58.95
30584;BME280;17357;59.404;18.414;2022-07-29T06:46:23;102284.56;;;24.74;59.13
30584;BME280;17357;59.404;18.414;2022-07-29T06:48:48;102287.81;;;24.76;59.02
30584;BME280;17357;59.404;18.414;2022-07-29T06:51:14;102280.41;;;24.71;59.20
30584;BME280;17357;59.404;18.414;2022-07-29T06:53:39;102285.81;;;24.76;58.91
30584;BME280;17357;59.404;18.414;2022-07-29T06:56:06;102287.47;;;24.77;59.00
30584;BME280;17357;59.404;18.414;2022-07-29T06:58:34;102291.13;;;24.78;59.36
30584;BME280;17357;59.404;18.414;2022-07-29T07:01:02;102295.28;;;24.80;59.04
30584;BME280;17357;59.404;18.414;2022-07-29T07:03:27;102300.13;;;24.80;59.18
30584;BME280;17357;59.404;18.414;2022-07-29T07:05:53;102297.72;;;24.82;59.18
30584;BME280;17357;59.404;18.414;2022-07-29T07:08:19;102296.88;;;24.81;59.52
30584;BME280;17357;59.404;18.414;2022-07-29T07:10:46;102288.75;;;24.80;59.24
30584;BME280;17357;59.404;18.414;2022-07-29T07:13:11;102288.66;;;24.76;59.56
30584;BME280;17357;59.404;18.414;2022-07-29T07:15:37;102294.06;;;24.81;59.55
30584;BME280;17357;59.404;18.414;2022-07-29T07:18:03;102288.84;;;24.83;59.55
30584;BME280;17357;59.404;18.414;2022-07-29T07:20:28;102290.41;;;24.81;59.75
30584;BME280;17357;59.404;18.414;2022-07-29T07:22:54;102291.22;;;24.81;59.95
30584;BME280;17357;59.404;18.414;2022-07-29T07:25:19;102290.03;;;24.82;59.70
30584;BME280;17357;59.404;18.414;2022-07-29T07:27:45;102294.53;;;24.83;60.07
30584;BME280;17357;59.404;18.414;2022-07-29T07:30:11;102297.00;;;24.85;60.48
30584;BME280;17357;59.404;18.414;2022-07-29T07:32:36;102284.81;;;24.84;60.81
30584;BME280;17357;59.404;18.414;2022-07-29T07:35:03;102296.25;;;24.88;61.13
30584;BME280;17357;59.404;18.414;2022-07-29T07:37:29;102286.91;;;24.87;61.15
30584;BME280;17357;59.404;18.414;2022-07-29T07:39:54;102285.66;;;24.85;61.32
30584;BME280;17357;59.404;18.414;2022-07-29T07:42:20;102284.00;;;24.84;61.85
30584;BME280;17357;59.404;18.414;2022-07-29T07:44:45;102283.25;;;24.87;61.49
30584;BME280;17357;59.404;18.414;2022-07-29T07:47:11;102286.91;;;24.87;61.38
30584;BME280;17357;59.404;18.414;2022-07-29T07:49:36;102280.34;;;24.83;61.08
30584;BME280;17357;59.404;18.414;2022-07-29T07:52:02;102275.13;;;24.85;60.59
30584;BME280;17357;59.404;18.414;2022-07-29T07:54:27;102277.03;;;24.81;60.58
30584;BME280;17357;59.404;18.414;2022-07-29T07:56:52;102277.56;;;24.87;59.98
30584;BME280;17357;59.404;18.414;2022-07-29T07:59:18;102277.50;;;24.83;60.01
30584;BME280;17357;59.404;18.414;2022-07-29T08:01:43;102275.13;;;24.85;60.03
30584;BME280;17357;59.404;18.414;2022-07-29T08:04:08;102281.53;;;24.82;59.29
30584;BME280;17357;59.404;18.414;2022-07-29T08:06:34;102283.63;;;24.85;59.14
30584;BME280;17357;59.404;18.414;2022-07-29T08:09:01;102283.16;;;24.83;59.29
30584;BME280;17357;59.404;18.414;2022-07-29T08:11:26;102286.38;;;24.82;59.21
30584;BME280;17357;59.404;18.414;2022-07-29T08:13:52;102272.56;;;24.80;59.31
30584;BME280;17357;59.404;18.414;2022-07-29T08:16:17;102279.16;;;24.84;59.33
30584;BME280;17357;59.404;18.414;2022-07-29T08:18:44;102282.44;;;24.86;59.17
30584;BME280;17357;59.404;18.414;2022-07-29T08:21:10;102269.34;;;24.82;59.24
30584;BME280;17357;59.404;18.414;2022-07-29T08:23:35;102286.09;;;24.87;59.36
30584;BME280;17357;59.404;18.414;2022-07-29T08:26:05;102274.72;;;24.87;59.47
30584;BME280;17357;59.404;18.414;2022-07-29T08:28:31;102265.44;;;24.86;59.39
30584;BME280;17357;59.404;18.414;2022-07-29T08:30:56;102273.94;;;24.86;59.56
30584;BME280;17357;59.404;18.414;2022-07-29T08:33:21;102273.13;;;24.86;59.83
30584;BME280;17357;59.404;18.414;2022-07-29T08:35:47;102269.44;;;24.85;59.60
30584;BME280;17357;59.404;18.414;2022-07-29T08:38:12;102274.41;;;24.88;59.53
30584;BME280;17357;59.404;18.414;2022-07-29T08:40:37;102267.53;;;24.89;59.25
30584;BME280;17357;59.404;18.414;2022-07-29T08:43:07;102273.94;;;24.86;59.14
30584;BME280;17357;59.404;18.414;2022-07-29T08:45:47;102270.63;;;24.84;59.15
30584;BME280;17357;59.404;18.414;2022-07-29T08:48:14;102276.78;;;24.86;58.99
30584;BME280;17357;59.404;18.414;2022-07-29T08:50:41;102286.22;;;24.90;59.20
30584;BME280;17357;59.404;18.414;2022-07-29T08:53:09;102278.97;;;24.93;58.99
30584;BME280;17357;59.404;18.414;2022-07-29T08:55:36;102289.53;;;24.92;58.94
30584;BME280;17357;59.404;18.414;2022-07-29T08:58:04;102287.13;;;24.94;59.09
30584;BME280;17357;59.404;18.414;2022-07-29T09:00:30;102271.28;;;24.93;59.17
30584;BME280;17357;59.404;18.414;2022-07-29T09:02:57;102278.63;;;24.94;59.13
30584;BME280;17357;59.404;18.414;2022-07-29T09:05:25;102278.63;;;24.94;59.32
30584;BME280;17357;59.404;18.414;2022-07-29T09:07:51;102278.72;;;24.98;59.36
30584;BME280;17357;59.404;18.414;2022-07-29T09:10:17;102275.41;;;24.96;59.37
30584;BME280;17357;59.404;18.414;2022-07-29T09:12:43;102275.50;;;25.00;59.10
30584;BME280;17357;59.404;18.414;2022-07-29T09:15:09;102273.06;;;24.98;59.47
30584;BME280;17357;59.404;18.414;2022-07-29T09:20:16;102275.06;;;24.98;59.51
30584;BME280;17357;59.404;18.414;2022-07-29T09:22:43;102273.84;;;24.99;59.79
30584;BME280;17357;59.404;18.414;2022-07-29T09:25:11;102275.06;;;24.98;59.53
30584;BME280;17357;59.404;18.414;2022-07-29T09:27:37;102277.16;;;25.01;59.78
30584;BME280;17357;59.404;18.414;2022-07-29T09:30:05;102266.97;;;25.00;60.24
30584;BME280;17357;59.404;18.414;2022-07-29T09:32:31;102273.06;;;24.98;60.56
30584;BME280;17357;59.404;18.414;2022-07-29T09:35:18;102273.41;;;24.97;60.83
30584;BME280;17357;59.404;18.414;2022-07-29T09:37:44;102261.78;;;25.02;61.30
30584;BME280;17357;59.404;18.414;2022-07-29T09:40:20;102264.13;;;25.00;61.31
30584;BME280;17357;59.404;18.414;2022-07-29T09:42:46;102258.94;;;25.02;61.65
30584;BME280;17357;59.404;18.414;2022-07-29T09:45:12;102265.44;;;25.02;61.29
30584;BME280;17357;59.404;18.414;2022-07-29T09:47:47;102261.69;;;24.98;61.44
30584;BME280;17357;59.404;18.414;2022-07-29T09:50:17;102256.75;;;24.95;61.09
30584;BME280;17357;59.404;18.414;2022-07-29T09:52:50;102265.44;;;25.02;60.41
30584;BME280;17357;59.404;18.414;2022-07-29T09:55:17;102267.72;;;24.97;60.33
30584;BME280;17357;59.404;18.414;2022-07-29T09:57:43;102262.06;;;24.97;60.13
30584;BME280;17357;59.404;18.414;2022-07-29T10:00:11;102266.06;;;24.95;59.37
30584;BME280;17357;59.404;18.414;2022-07-29T10:02:39;102268.56;;;24.97;59.33
30584;BME280;17357;59.404;18.414;2022-07-29T10:05:15;102270.56;;;24.97;59.40
30584;BME280;17357;59.404;18.414;2022-07-29T10:07:45;102263.25;;;24.95;59.05
30584;BME280;17357;59.404;18.414;2022-07-29T10:10:18;102264.44;;;24.94;59.45
30584;BME280;17357;59.404;18.414;2022-07-29T10:12:59;102261.59;;;24.94;59.06
30584;BME280;17357;59.404;18.414;2022-07-29T10:15:27;102256.38;;;24.97;59.44
30584;BME280;17357;59.404;18.414;2022-07-29T10:17:55;102254.38;;;24.97;59.43
30584;BME280;17357;59.404;18.414;2022-07-29T10:20:21;102264.88;;;24.97;59.51
30584;BME280;17357;59.404;18.414;2022-07-29T10:22:48;102256.03;;;24.98;59.21
30584;BME280;17357;59.404;18.414;2022-07-29T10:25:15;102255.19;;;24.98;59.57
30584;BME280;17357;59.404;18.414;2022-07-29T10:27:41;102257.75;;;25.03;59.04
30584;BME280;17357;59.404;18.414;2022-07-29T10:30:07;102264.97;;;25.00;58.67
30584;BME280;17357;59.404;18.414;2022-07-29T10:41:31;102255.69;;;24.87;57.78
30584;BME280;17357;59.404;18.414;2022-07-29T10:44:09;102263.38;;;24.87;57.81
30584;BME280;17357;59.404;18.414;2022-07-29T10:46:39;102252.72;;;24.96;57.40
30584;BME280;17357;59.404;18.414;2022-07-29T10:49:22;102257.69;;;24.87;57.53
30584;BME280;17357;59.404;18.414;2022-07-29T10:57:28;102250.97;;;24.91;57.06
30584;BME280;17357;59.404;18.414;2022-07-29T11:05:30;102244.56;;;24.94;57.52
30584;BME280;17357;59.404;18.414;2022-07-29T11:08:17;102243.09;;;25.01;57.48
30584;BME280;17357;59.404;18.414;2022-07-29T11:10:44;102237.34;;;24.97;57.77
30584;BME280;17357;59.404;18.414;2022-07-29T11:13:09;102242.63;;;24.99;57.53
30584;BME280;17357;59.404;18.414;2022-07-29T11:15:54;102237.34;;;24.97;57.62
30584;BME280;17357;59.404;18.414;2022-07-29T11:18:20;102245.94;;;25.01;57.94
30584;BME280;17357;59.404;18.414;2022-07-29T11:20:47;102234.78;;;24.92;58.51
30584;BME280;17357;59.404;18.414;2022-07-29T11:31:16;102226.69;;;24.94;58.93
30584;BME280;17357;59.404;18.414;2022-07-29T11:33:41;102232.84;;;24.96;59.49
30584;BME280;17357;59.404;18.414;2022-07-29T11:36:11;102230.47;;;24.98;59.92
30584;BME280;17357;59.404;18.414;2022-07-29T11:38:37;102228.44;;;24.99;60.52
30584;BME280;17357;59.404;18.414;2022-07-29T11:41:24;102233.38;;;25.02;60.38
30584;BME280;17357;59.404;18.414;2022-07-29T11:49:12;102229.19;;;24.95;61.03
30584;BME280;17357;59.404;18.414;2022-07-29T11:51:38;102225.69;;;25.02;60.80
30584;BME280;17357;59.404;18.414;2022-07-29T11:54:04;102225.97;;;24.97;60.42
30584;BME280;17357;59.404;18.414;2022-07-29T11:56:31;102221.03;;;24.94;59.96
30584;BME280;17357;59.404;18.414;2022-07-29T11:59:07;102225.88;;;24.93;59.35
30584;BME280;17357;59.404;18.414;2022-07-29T12:01:34;102226.69;;;24.94;58.98
30584;BME280;17357;59.404;18.414;2022-07-29T12:04:04;102223.97;;;24.98;58.57
30584;BME280;17357;59.404;18.414;2022-07-29T12:06:29;102228.72;;;24.93;58.40
30584;BME280;17357;59.404;18.414;2022-07-29T12:08:54;102226.34;;;24.95;58.43
30584;BME280;17357;59.404;18.414;2022-07-29T12:11:20;102229.34;;;25.03;57.64
30584;BME280;17357;59.404;18.414;2022-07-29T12:13:45;102231.38;;;25.02;57.76
30584;BME280;17357;59.404;18.414;2022-07-29T12:16:11;102221.13;;;24.98;57.64
30584;BME280;17357;59.404;18.414;2022-07-29T12:18:36;102219.56;;;25.00;57.60
30584;BME280;17357;59.404;18.414;2022-07-29T12:21:02;102224.88;;;25.02;58.00
30584;BME280;17357;59.404;18.414;2022-07-29T12:23:29;102224.03;;;25.01;57.94
30584;BME280;17357;59.404;18.414;2022-07-29T12:25:54;102219.56;;;25.00;58.07
30584;BME280;17357;59.404;18.414;2022-07-29T12:28:20;102215.16;;;25.03;57.86
30584;BME280;17357;59.404;18.414;2022-07-29T12:30:48;102219.19;;;25.02;58.06
30584;BME280;17357;59.404;18.414;2022-07-29T12:33:25;102210.69;;;25.02;57.92
30584;BME280;17357;59.404;18.414;2022-07-29T12:35:53;102213.50;;;25.02;58.16
30584;BME280;17357;59.404;18.414;2022-07-29T12:38:20;102220.84;;;25.03;58.19
30584;BME280;17357;59.404;18.414;2022-07-29T12:40:47;102214.34;;;25.02;58.11
30584;BME280;17357;59.404;18.414;2022-07-29T12:43:18;102213.50;;;25.02;57.87
30584;BME280;17357;59.404;18.414;2022-07-29T12:45:47;102213.50;;;25.02;58.12
30584;BME280;17357;59.404;18.414;2022-07-29T12:48:13;102199.78;;;25.04;57.77
30584;BME280;17357;59.404;18.414;2022-07-29T12:51:11;102210.59;;;24.98;57.88
30584;BME280;17357;59.404;18.414;2022-07-29T12:53:39;102210.69;;;25.02;57.43
30584;BME280;17357;59.404;18.414;2022-07-29T12:56:05;102202.72;;;24.91;57.75
30584;BME280;17357;59.404;18.414;2022-07-29T13:01:15;102207.47;;;25.03;57.17
30584;BME280;17357;59.404;18.414;2022-07-29T13:04:02;102206.19;;;25.01;57.92
30584;BME280;17357;59.404;18.414;2022-07-29T13:09:16;102202.63;;;25.04;57.56
30584;BME280;17357;59.404;18.414;2022-07-29T13:11:47;102206.00;;;25.09;57.74
30584;BME280;17357;59.404;18.414;2022-07-29T13:14:13;102208.56;;;24.99;57.92
30584;BME280;17357;59.404;18.414;2022-07-29T13:17:05;102201.78;;;25.03;57.96
30584;BME280;17357;59.404;18.414;2022-07-29T13:19:44;102195.28;;;25.03;58.19
30584;BME280;17357;59.404;18.414;2022-07-29T13:22:15;102205.91;;;25.06;58.13
30584;BME280;17357;59.404;18.414;2022-07-29T13:24:55;102196.00;;;25.00;58.20
30584;BME280;17357;59.404;18.414;2022-07-29T13:27:22;102196.19;;;25.07;58.05
30584;BME280;17357;59.404;18.414;2022-07-29T13:29:48;102196.25;;;25.10;58.48
30584;BME280;17357;59.404;18.414;2022-07-29T13:32:16;102190.75;;;25.17;58.25
30584;BME280;17357;59.404;18.414;2022-07-29T13:34:41;102189.41;;;25.11;58.44
30584;BME280;17357;59.404;18.414;2022-07-29T13:37:07;102186.19;;;25.13;59.07